sensor_id;sensor_type;location;lat;lon;timestamp;pressure;altitude;pressure_sealevel;temperature;humidity
76311;BME280;65120;59.304;18.294;2023-08-12T00:01:48;101919.28;;;12.74;69.17
76311;BME280;65120;59.304;18.294;2023-08-12T00:04:14;101922.81;;;12.73;69.06
76311;BME280;65120;59.304;18.294;2023-08-12T00:06:42;101909.78;;;12.64;69.19
76311;BME280;65120;59.304;18.294;2023-08-12T00:09:09;101921.97;;;12.70;69.15
76311;BME280;65120;59.304;18.294;2023-08-12T00:11:37;101916.75;;;12.67;69.21
76311;BME280;65120;59.304;18.294;2023-08-12T00:14:04;101917.63;;;12.66;69.31
76311;BME280;65120;59.304;18.294;2023-08-12T00:16:31;101920.28;;;12.64;69.11
76311;BME280;65120;59.304;18.294;2023-08-12T00:19:00;101913.31;;;12.62;69.39
76311;BME280;65120;59.304;18.294;2023-08-12T00:21:27;101908.97;;;12.56;69.47
76311;BME280;65120;59.304;18.294;2023-08-12T00:23:54;101916.84;;;12.54;69.26
76311;BME280;65120;59.304;18.294;2023-08-12T00:26:20;101922.09;;;12.56;69.56
76311;BME280;65120;59.304;18.294;2023-08-12T00:28:48;101913.34;;;12.54;69.37
76311;BME280;65120;59.304;18.294;2023-08-12T00:31:15;101917.72;;;12.52;69.92
76311;BME280;65120;59.304;18.294;2023-08-12T00:33:42;101921.25;;;12.49;69.75
76311;BME280;65120;59.304;18.294;2023-08-12T00:36:10;101898.66;;;12.36;69.85
76311;BME280;65120;59.304;18.294;2023-08-12T00:38:37;101930.91;;;12.47;69.80
76311;BME280;65120;59.304;18.294;2023-08-12T00:41:04;101930.03;;;12.47;69.75
76311;BME280;65120;59.304;18.294;2023-08-12T00:43:31;101923.91;;;12.45;69.81
76311;BME280;65120;59.304;18.294;2023-08-12T00:45:58;101926.56;;;12.42;69.90
76311;BME280;65120;59.304;18.294;2023-08-12T00:48:25;101925.72;;;12.41;69.77
76311;BME280;65120;59.304;18.294;2023-08-12T00:50:52;101916.16;;;12.32;70.02
76311;BME280;65120;59.304;18.294;2023-08-12T00:53:21;101930.97;;;12.38;69.97
76311;BME280;65120;59.304;18.294;2023-08-12T00:55:48;101931.84;;;12.37;70.33
76311;BME280;65120;59.304;18.294;2023-08-12T00:58:15;101917.91;;;12.29;70.04
76311;BME280;65120;59.304;18.294;2023-08-12T01:00:42;101922.25;;;12.34;70.17
76311;BME280;65120;59.304;18.294;2023-08-12T01:03:10;101922.28;;;12.33;70.09
76311;BME280;65120;59.304;18.294;2023-08-12T01:05:37;101924.03;;;12.32;70.19
76311;BME280;65120;59.304;18.294;2023-08-12T01:08:04;101924.03;;;12.31;70.31
76311;BME280;65120;59.304;18.294;2023-08-12T01:10:35;101912.69;;;12.30;70.24
76311;BME280;65120;59.304;18.294;2023-08-12T01:13:14;101912.69;;;12.29;70.16
76311;BME280;65120;59.304;18.294;2023-08-12T01:15:44;101914.47;;;12.25;70.26
76311;BME280;65120;59.304;18.294;2023-08-12T01:18:12;101908.41;;;12.19;70.54
76311;BME280;65120;59.304;18.294;2023-08-12T01:20:40;101906.66;;;12.16;70.56
76311;BME280;65120;59.304;18.294;2023-08-12T01:23:10;101919.69;;;12.25;70.80
76311;BME280;65120;59.304;18.294;2023-08-12T01:25:38;101910.97;;;12.23;70.76
76311;BME280;65120;59.304;18.294;2023-08-12T01:28:06;101894.44;;;12.15;70.72
76311;BME280;65120;59.304;18.294;2023-08-12T01:30:37;101896.16;;;12.18;70.63
76311;BME280;65120;59.304;18.294;2023-08-12T01:33:11;101905.75;;;12.20;70.61
76311;BME280;65120;59.304;18.294;2023-08-12T01:35:41;101892.72;;;12.12;70.57
76311;BME280;65120;59.304;18.294;2023-08-12T01:38:11;101902.28;;;12.18;70.80
76311;BME280;65120;59.304;18.294;2023-08-12T01:40:39;101907.53;;;12.18;70.92
76311;BME280;65120;59.304;18.294;2023-08-12T01:43:06;101902.28;;;12.18;70.76
76311;BME280;65120;59.304;18.294;2023-08-12T01:45:34;101896.19;;;12.16;70.92
76311;BME280;65120;59.304;18.294;2023-08-12T01:48:01;101901.44;;;12.16;71.08
76311;BME280;65120;59.304;18.294;2023-08-12T01:50:28;101897.06;;;12.15;71.07
76311;BME280;65120;59.304;18.294;2023-08-12T01:52:55;101902.28;;;12.15;70.99
76311;BME280;65120;59.304;18.294;2023-08-12T01:55:25;101901.44;;;12.13;71.15
76311;BME280;65120;59.304;18.294;2023-08-12T01:57:51;101904.06;;;12.13;71.34
76311;BME280;65120;59.304;18.294;2023-08-12T02:00:18;101910.19;;;12.13;71.33
76311;BME280;65120;59.304;18.294;2023-08-12T02:02:45;101902.31;;;12.12;71.19
76311;BME280;65120;59.304;18.294;2023-08-12T02:05:13;101907.56;;;12.12;71.53
76311;BME280;65120;59.304;18.294;2023-08-12T02:07:39;101905.81;;;12.12;71.54
76311;BME280;65120;59.304;18.294;2023-08-12T02:10:07;101919.78;;;12.13;71.60
76311;BME280;65120;59.304;18.294;2023-08-12T02:12:35;101917.16;;;12.13;71.53
76311;BME280;65120;59.304;18.294;2023-08-12T02:15:02;101923.25;;;12.12;71.55
76311;BME280;65120;59.304;18.294;2023-08-12T02:17:29;101919.81;;;12.10;71.61
76311;BME280;65120;59.304;18.294;2023-08-12T02:19:56;101906.75;;;12.07;71.46
76311;BME280;65120;59.304;18.294;2023-08-12T02:22:23;101910.19;;;12.09;71.29
76311;BME280;65120;59.304;18.294;2023-08-12T02:24:50;101911.94;;;12.08;71.43
76311;BME280;65120;59.304;18.294;2023-08-12T02:27:17;101910.22;;;12.07;71.49
76311;BME280;65120;59.304;18.294;2023-08-12T02:29:46;101908.50;;;12.02;71.51
76311;BME280;65120;59.304;18.294;2023-08-12T02:32:13;101920.72;;;12.04;71.46
76311;BME280;65120;59.304;18.294;2023-08-12T02:34:40;101905.91;;;12.02;71.26
76311;BME280;65120;59.304;18.294;2023-08-12T02:37:07;101916.38;;;12.02;71.34
76311;BME280;65120;59.304;18.294;2023-08-12T02:39:33;101909.38;;;12.01;71.53
76311;BME280;65120;59.304;18.294;2023-08-12T02:42:00;101905.06;;;11.93;71.45
76311;BME280;65120;59.304;18.294;2023-08-12T02:44:28;101917.25;;;11.98;71.49
76311;BME280;65120;59.304;18.294;2023-08-12T02:46:56;101911.16;;;11.97;71.45
76311;BME280;65120;59.304;18.294;2023-08-12T02:49:23;101891.13;;;11.88;71.50
76311;BME280;65120;59.304;18.294;2023-08-12T02:51:50;101913.78;;;11.96;71.57
76311;BME280;65120;59.304;18.294;2023-08-12T02:54:16;101915.50;;;11.95;71.40
76311;BME280;65120;59.304;18.294;2023-08-12T02:56:43;101912.91;;;11.93;71.56
76311;BME280;65120;59.304;18.294;2023-08-12T02:59:10;101895.50;;;11.86;71.60
76311;BME280;65120;59.304;18.294;2023-08-12T03:01:37;101909.44;;;11.91;71.66
76311;BME280;65120;59.304;18.294;2023-08-12T03:04:06;101909.44;;;11.91;71.66
76311;BME280;65120;59.304;18.294;2023-08-12T03:06:32;101891.09;;;11.84;71.90
76311;BME280;65120;59.304;18.294;2023-08-12T03:08:59;101899.00;;;11.90;71.66
76311;BME280;65120;59.304;18.294;2023-08-12T03:11:26;101905.94;;;11.89;71.81
76311;BME280;65120;59.304;18.294;2023-08-12T03:13:53;101903.34;;;11.88;71.66
76311;BME280;65120;59.304;18.294;2023-08-12T03:16:20;101902.50;;;11.87;71.69
76311;BME280;65120;59.304;18.294;2023-08-12T03:18:47;101907.72;;;11.87;71.99
76311;BME280;65120;59.304;18.294;2023-08-12T03:21:15;101904.25;;;11.85;71.90
76311;BME280;65120;59.304;18.294;2023-08-12T03:23:42;101904.25;;;11.85;71.83
76311;BME280;65120;59.304;18.294;2023-08-12T03:26:09;101906.81;;;11.84;71.88
76311;BME280;65120;59.304;18.294;2023-08-12T03:28:36;101910.34;;;11.81;72.15
76311;BME280;65120;59.304;18.294;2023-08-12T03:31:03;101900.72;;;11.80;72.09
76311;BME280;65120;59.304;18.294;2023-08-12T03:33:30;101902.50;;;11.81;72.15
76311;BME280;65120;59.304;18.294;2023-08-12T03:35:59;101905.09;;;11.83;72.27
76311;BME280;65120;59.304;18.294;2023-08-12T03:38:27;101901.59;;;11.81;72.29
76311;BME280;65120;59.304;18.294;2023-08-12T03:40:54;101869.41;;;11.65;72.42
76311;BME280;65120;59.304;18.294;2023-08-12T03:43:21;101900.72;;;11.83;72.50
76311;BME280;65120;59.304;18.294;2023-08-12T03:45:48;101898.09;;;11.83;72.25
76311;BME280;65120;59.304;18.294;2023-08-12T03:48:15;101896.34;;;11.84;72.60
76311;BME280;65120;59.304;18.294;2023-08-12T03:50:42;101887.66;;;11.79;72.65
76311;BME280;65120;59.304;18.294;2023-08-12T03:53:11;101895.47;;;11.83;72.78
76311;BME280;65120;59.304;18.294;2023-08-12T03:55:39;101892.00;;;11.84;72.85
76311;BME280;65120;59.304;18.294;2023-08-12T03:58:06;101894.63;;;11.86;73.06
76311;BME280;65120;59.304;18.294;2023-08-12T04:00:35;101893.75;;;11.85;72.96
76311;BME280;65120;59.304;18.294;2023-08-12T04:03:06;101898.09;;;11.86;72.98
76311;BME280;65120;59.304;18.294;2023-08-12T04:05:33;101901.63;;;11.87;73.15
76311;BME280;65120;59.304;18.294;2023-08-12T04:08:00;101896.38;;;11.88;73.19
76311;BME280;65120;59.304;18.294;2023-08-12T04:10:30;101901.59;;;11.90;73.63
76311;BME280;65120;59.304;18.294;2023-08-12T04:12:58;101906.81;;;11.91;73.49
76311;BME280;65120;59.304;18.294;2023-08-12T04:15:25;101900.72;;;11.92;73.36
76311;BME280;65120;59.304;18.294;2023-08-12T04:17:52;101897.22;;;11.93;73.81
76311;BME280;65120;59.304;18.294;2023-08-12T04:20:19;101891.97;;;11.93;73.67
76311;BME280;65120;59.304;18.294;2023-08-12T04:22:47;101890.25;;;11.92;74.01
76311;BME280;65120;59.304;18.294;2023-08-12T04:25:15;101887.56;;;12.00;74.38
76311;BME280;65120;59.304;18.294;2023-08-12T04:27:42;101884.94;;;12.02;74.64
76311;BME280;65120;59.304;18.294;2023-08-12T04:30:11;101882.31;;;12.05;74.90
76311;BME280;65120;59.304;18.294;2023-08-12T04:32:39;101876.16;;;12.06;74.77
76311;BME280;65120;59.304;18.294;2023-08-12T04:35:07;101878.78;;;12.10;74.99
76311;BME280;65120;59.304;18.294;2023-08-12T04:37:34;101883.94;;;12.15;75.26
76311;BME280;65120;59.304;18.294;2023-08-12T04:40:02;101863.03;;;12.12;75.40
76311;BME280;65120;59.304;18.294;2023-08-12T04:42:30;101870.81;;;12.23;75.75
76311;BME280;65120;59.304;18.294;2023-08-12T04:44:57;101873.38;;;12.29;76.16
76311;BME280;65120;59.304;18.294;2023-08-12T04:47:25;101875.94;;;12.35;76.51
76311;BME280;65120;59.304;18.294;2023-08-12T04:49:52;101874.16;;;12.42;76.78
76311;BME280;65120;59.304;18.294;2023-08-12T04:52:19;101867.09;;;12.50;77.09
76311;BME280;65120;59.304;18.294;2023-08-12T04:54:47;101869.63;;;12.59;77.21
76311;BME280;65120;59.304;18.294;2023-08-12T04:57:13;101881.75;;;12.69;77.41
76311;BME280;65120;59.304;18.294;2023-08-12T04:59:40;101880.78;;;12.79;77.44
76311;BME280;65120;59.304;18.294;2023-08-12T05:02:07;101875.44;;;12.90;77.57
76311;BME280;65120;59.304;18.294;2023-08-12T05:04:35;101871.81;;;13.02;77.53
76311;BME280;65120;59.304;18.294;2023-08-12T05:07:02;101873.44;;;13.15;77.50
76311;BME280;65120;59.304;18.294;2023-08-12T05:09:29;101873.31;;;13.29;77.25
76311;BME280;65120;59.304;18.294;2023-08-12T05:11:56;101872.28;;;13.41;76.82
76311;BME280;65120;59.304;18.294;2023-08-12T05:14:23;101871.22;;;13.54;76.55
76311;BME280;65120;59.304;18.294;2023-08-12T05:16:50;101865.81;;;13.65;76.32
76311;BME280;65120;59.304;18.294;2023-08-12T05:19:17;101869.09;;;13.81;76.45
76311;BME280;65120;59.304;18.294;2023-08-12T05:21:45;101861.91;;;13.93;76.28
76311;BME280;65120;59.304;18.294;2023-08-12T05:24:12;101862.59;;;14.06;76.05
76311;BME280;65120;59.304;18.294;2023-08-12T05:26:39;101867.66;;;14.17;75.51
76311;BME280;65120;59.304;18.294;2023-08-12T05:29:06;101867.50;;;14.28;75.63
76311;BME280;65120;59.304;18.294;2023-08-12T05:31:33;101867.31;;;14.38;75.37
76311;BME280;65120;59.304;18.294;2023-08-12T05:33:59;101868.91;;;14.49;74.96
76311;BME280;65120;59.304;18.294;2023-08-12T05:36:26;101867.88;;;14.60;75.19
76311;BME280;65120;59.304;18.294;2023-08-12T05:38:54;101867.69;;;14.70;74.87
76311;BME280;65120;59.304;18.294;2023-08-12T05:41:21;101854.41;;;14.77;74.66
76311;BME280;65120;59.304;18.294;2023-08-12T05:43:49;101862.06;;;14.88;74.46
76311;BME280;65120;59.304;18.294;2023-08-12T05:46:16;101864.50;;;14.99;74.33
76311;BME280;65120;59.304;18.294;2023-08-12T05:48:43;101860.03;;;15.02;74.03
76311;BME280;65120;59.304;18.294;2023-08-12T05:51:10;101853.72;;;15.13;73.76
76311;BME280;65120;59.304;18.294;2023-08-12T05:53:37;101856.06;;;15.26;73.42
76311;BME280;65120;59.304;18.294;2023-08-12T05:56:05;101856.78;;;15.35;73.49
76311;BME280;65120;59.304;18.294;2023-08-12T05:58:32;101859.19;;;15.45;73.22
76311;BME280;65120;59.304;18.294;2023-08-12T06:00:59;101863.41;;;15.52;73.75
76311;BME280;65120;59.304;18.294;2023-08-12T06:03:26;101865.81;;;15.63;73.32
76311;BME280;65120;59.304;18.294;2023-08-12T06:05:53;101853.38;;;15.71;73.20
76311;BME280;65120;59.304;18.294;2023-08-12T06:08:20;101844.47;;;15.77;72.97
76311;BME280;65120;59.304;18.294;2023-08-12T06:10:47;101836.34;;;15.86;72.71
76311;BME280;65120;59.304;18.294;2023-08-12T06:13:15;101839.69;;;15.93;72.40
76311;BME280;65120;59.304;18.294;2023-08-12T06:15:42;101846.59;;;15.99;72.18
76311;BME280;65120;59.304;18.294;2023-08-12T06:18:09;101831.53;;;16.04;72.15
76311;BME280;65120;59.304;18.294;2023-08-12T06:20:43;101838.44;;;16.08;71.86
76311;BME280;65120;59.304;18.294;2023-08-12T06:23:10;101841.03;;;16.11;71.88
76311;BME280;65120;59.304;18.294;2023-08-12T06:25:37;101826.09;;;16.10;71.73
76311;BME280;65120;59.304;18.294;2023-08-12T06:28:04;101849.47;;;16.25;71.85
76311;BME280;65120;59.304;18.294;2023-08-12T06:30:36;101844.06;;;16.30;71.48
76311;BME280;65120;59.304;18.294;2023-08-12T06:33:03;101855.34;;;16.36;71.36
76311;BME280;65120;59.304;18.294;2023-08-12T06:35:30;101856.22;;;16.35;70.89
76311;BME280;65120;59.304;18.294;2023-08-12T06:37:57;101860.38;;;16.46;70.92
76311;BME280;65120;59.304;18.294;2023-08-12T06:40:24;101866.44;;;16.49;71.04
76311;BME280;65120;59.304;18.294;2023-08-12T06:42:52;101858.44;;;16.52;70.68
76311;BME280;65120;59.304;18.294;2023-08-12T06:45:19;101853.91;;;16.57;70.81
76311;BME280;65120;59.304;18.294;2023-08-12T06:47:47;101842.34;;;16.63;71.05
76311;BME280;65120;59.304;18.294;2023-08-12T06:50:14;101843.97;;;16.67;71.17
76311;BME280;65120;59.304;18.294;2023-08-12T06:52:41;101846.44;;;16.73;70.27
76311;BME280;65120;59.304;18.294;2023-08-12T06:55:08;101840.22;;;16.77;69.45
76311;BME280;65120;59.304;18.294;2023-08-12T06:57:35;101837.44;;;16.82;69.23
76311;BME280;65120;59.304;18.294;2023-08-12T07:00:02;101844.38;;;16.86;69.11
76311;BME280;65120;59.304;18.294;2023-08-12T07:02:30;101847.78;;;16.90;69.21
76311;BME280;65120;59.304;18.294;2023-08-12T07:04:59;101853.81;;;16.95;69.10
76311;BME280;65120;59.304;18.294;2023-08-12T07:07:26;101850.13;;;17.00;68.38
76311;BME280;65120;59.304;18.294;2023-08-12T07:09:53;101858.78;;;17.05;68.64
76311;BME280;65120;59.304;18.294;2023-08-12T07:12:20;101851.66;;;17.09;67.97
76311;BME280;65120;59.304;18.294;2023-08-12T07:14:46;101849.75;;;17.14;67.80
76311;BME280;65120;59.304;18.294;2023-08-12T07:17:13;101840.81;;;17.18;67.78
76311;BME280;65120;59.304;18.294;2023-08-12T07:19:40;101832.78;;;17.23;67.86
76311;BME280;65120;59.304;18.294;2023-08-12T07:22:09;101835.25;;;17.27;67.71
76311;BME280;65120;59.304;18.294;2023-08-12T07:24:35;101837.78;;;17.32;67.86
76311;BME280;65120;59.304;18.294;2023-08-12T07:27:02;101832.38;;;17.37;67.34
76311;BME280;65120;59.304;18.294;2023-08-12T07:29:29;101828.69;;;17.42;68.06
76311;BME280;65120;59.304;18.294;2023-08-12T07:31:56;101820.84;;;17.39;67.59
76311;BME280;65120;59.304;18.294;2023-08-12T07:34:23;101838.03;;;17.52;67.63
76311;BME280;65120;59.304;18.294;2023-08-12T07:36:50;101849.34;;;17.58;67.06
76311;BME280;65120;59.304;18.294;2023-08-12T07:39:19;101846.59;;;17.61;67.40
76311;BME280;65120;59.304;18.294;2023-08-12T07:41:46;101849.00;;;17.68;66.91
76311;BME280;65120;59.304;18.294;2023-08-12T07:44:13;101844.50;;;17.72;67.25
76311;BME280;65120;59.304;18.294;2023-08-12T07:46:40;101852.28;;;17.76;67.01
76311;BME280;65120;59.304;18.294;2023-08-12T07:49:06;101846.94;;;17.80;66.83
76311;BME280;65120;59.304;18.294;2023-08-12T07:51:33;101850.25;;;17.86;66.67
76311;BME280;65120;59.304;18.294;2023-08-12T07:54:00;101849.25;;;17.90;67.00
76311;BME280;65120;59.304;18.294;2023-08-12T07:56:28;101856.16;;;17.94;66.10
76311;BME280;65120;59.304;18.294;2023-08-12T07:58:55;101855.19;;;17.97;65.99
76311;BME280;65120;59.304;18.294;2023-08-12T08:01:22;101856.81;;;18.01;65.93
76311;BME280;65120;59.304;18.294;2023-08-12T08:03:49;101850.09;;;17.91;65.72
76311;BME280;65120;59.304;18.294;2023-08-12T08:06:16;101861.03;;;18.07;65.13
76311;BME280;65120;59.304;18.294;2023-08-12T08:08:43;101861.09;;;18.05;64.82
76311;BME280;65120;59.304;18.294;2023-08-12T08:11:10;101874.22;;;18.08;64.70
76311;BME280;65120;59.304;18.294;2023-08-12T08:13:38;101862.81;;;18.06;64.56
76311;BME280;65120;59.304;18.294;2023-08-12T08:16:05;101868.22;;;18.03;64.91
76311;BME280;65120;59.304;18.294;2023-08-12T08:18:32;101874.13;;;18.11;64.73
76311;BME280;65120;59.304;18.294;2023-08-12T08:20:59;101871.47;;;18.11;64.67
76311;BME280;65120;59.304;18.294;2023-08-12T08:23:26;101866.06;;;18.14;64.50
76311;BME280;65120;59.304;18.294;2023-08-12T08:25:53;101867.78;;;18.15;64.64
76311;BME280;65120;59.304;18.294;2023-08-12T08:28:20;101851.94;;;18.15;64.69
76311;BME280;65120;59.304;18.294;2023-08-12T08:30:48;101856.38;;;18.15;64.00
76311;BME280;65120;59.304;18.294;2023-08-12T08:33:15;101865.16;;;18.15;64.52
76311;BME280;65120;59.304;18.294;2023-08-12T08:35:42;101861.63;;;18.16;64.43
76311;BME280;65120;59.304;18.294;2023-08-12T08:38:09;101865.13;;;18.17;64.60
76311;BME280;65120;59.304;18.294;2023-08-12T08:40:36;101853.78;;;18.13;64.54
76311;BME280;65120;59.304;18.294;2023-08-12T08:43:04;101861.63;;;18.16;64.54
76311;BME280;65120;59.304;18.294;2023-08-12T08:45:34;101855.47;;;18.16;65.06
76311;BME280;65120;59.304;18.294;2023-08-12T08:48:03;101844.09;;;18.12;65.39
76311;BME280;65120;59.304;18.294;2023-08-12T08:50:31;101851.75;;;18.22;65.91
76311;BME280;65120;59.304;18.294;2023-08-12T08:52:59;101856.03;;;18.24;65.98
76311;BME280;65120;59.304;18.294;2023-08-12T08:55:28;101845.84;;;18.13;66.12
76311;BME280;65120;59.304;18.294;2023-08-12T08:57:56;101859.41;;;18.29;66.16
76311;BME280;65120;59.304;18.294;2023-08-12T09:00:23;101860.28;;;18.30;66.10
76311;BME280;65120;59.304;18.294;2023-08-12T09:02:51;101871.53;;;18.36;66.55
76311;BME280;65120;59.304;18.294;2023-08-12T09:05:22;101867.03;;;18.38;66.51
76311;BME280;65120;59.304;18.294;2023-08-12T09:07:49;101873.03;;;18.43;66.53
76311;BME280;65120;59.304;18.294;2023-08-12T09:10:20;101867.66;;;18.47;66.64
76311;BME280;65120;59.304;18.294;2023-08-12T09:12:47;101863.13;;;18.50;66.39
76311;BME280;65120;59.304;18.294;2023-08-12T09:15:16;101857.66;;;18.55;66.15
76311;BME280;65120;59.304;18.294;2023-08-12T09:17:43;101846.44;;;18.48;66.37
76311;BME280;65120;59.304;18.294;2023-08-12T09:20:10;101859.13;;;18.63;65.88
76311;BME280;65120;59.304;18.294;2023-08-12T09:22:40;101862.56;;;18.67;65.79
76311;BME280;65120;59.304;18.294;2023-08-12T09:25:08;101859.94;;;18.65;65.97
76311;BME280;65120;59.304;18.294;2023-08-12T09:27:36;101867.47;;;18.78;65.70
76311;BME280;65120;59.304;18.294;2023-08-12T09:30:04;101860.25;;;18.83;65.87
76311;BME280;65120;59.304;18.294;2023-08-12T09:32:31;101868.91;;;18.88;65.51
76311;BME280;65120;59.304;18.294;2023-08-12T09:35:00;101865.19;;;18.92;65.20
76311;BME280;65120;59.304;18.294;2023-08-12T09:37:29;101866.84;;;18.96;64.49
76311;BME280;65120;59.304;18.294;2023-08-12T09:39:57;101859.75;;;18.97;64.76
76311;BME280;65120;59.304;18.294;2023-08-12T09:42:24;101867.47;;;19.03;64.50
76311;BME280;65120;59.304;18.294;2023-08-12T09:44:51;101853.41;;;19.01;64.57
76311;BME280;65120;59.304;18.294;2023-08-12T09:47:18;101870.75;;;19.09;64.50
76311;BME280;65120;59.304;18.294;2023-08-12T09:49:45;101861.72;;;19.15;64.32
76311;BME280;65120;59.304;18.294;2023-08-12T09:52:12;101844.84;;;19.18;64.08
76311;BME280;65120;59.304;18.294;2023-08-12T09:54:39;101839.63;;;19.16;64.24
76311;BME280;65120;59.304;18.294;2023-08-12T09:57:10;101828.09;;;19.17;63.91
76311;BME280;65120;59.304;18.294;2023-08-12T09:59:41;101844.53;;;19.27;63.78
76311;BME280;65120;59.304;18.294;2023-08-12T10:02:07;101851.47;;;19.29;64.00
76311;BME280;65120;59.304;18.294;2023-08-12T10:04:39;101836.38;;;19.31;63.76
76311;BME280;65120;59.304;18.294;2023-08-12T10:07:09;101839.00;;;19.33;63.67
76311;BME280;65120;59.304;18.294;2023-08-12T10:09:38;101832.84;;;19.32;63.13
76311;BME280;65120;59.304;18.294;2023-08-12T10:12:07;101841.53;;;19.36;63.51
76311;BME280;65120;59.304;18.294;2023-08-12T10:14:36;101822.28;;;19.31;63.90
76311;BME280;65120;59.304;18.294;2023-08-12T10:17:03;101838.63;;;19.42;63.50
76311;BME280;65120;59.304;18.294;2023-08-12T10:19:30;101841.03;;;19.48;63.49
76311;BME280;65120;59.304;18.294;2023-08-12T10:21:58;101835.56;;;19.53;63.72
76311;BME280;65120;59.304;18.294;2023-08-12T10:24:27;101844.25;;;19.57;63.57
76311;BME280;65120;59.304;18.294;2023-08-12T10:26:54;101846.75;;;19.61;64.01
76311;BME280;65120;59.304;18.294;2023-08-12T10:29:23;101843.88;;;19.67;63.80
76311;BME280;65120;59.304;18.294;2023-08-12T10:31:52;101826.00;;;19.72;63.98
76311;BME280;65120;59.304;18.294;2023-08-12T10:34:20;101829.38;;;19.76;63.81
76311;BME280;65120;59.304;18.294;2023-08-12T10:36:47;101830.94;;;19.82;63.44
76311;BME280;65120;59.304;18.294;2023-08-12T10:39:14;101829.88;;;19.86;62.94
76311;BME280;65120;59.304;18.294;2023-08-12T10:41:50;101827.03;;;19.90;62.70
76311;BME280;65120;59.304;18.294;2023-08-12T10:44:20;101818.09;;;19.93;62.74
76311;BME280;65120;59.304;18.294;2023-08-12T10:46:53;101810.88;;;19.96;62.52
76311;BME280;65120;59.304;18.294;2023-08-12T10:49:21;101821.31;;;20.01;62.98
76311;BME280;65120;59.304;18.294;2023-08-12T10:51:49;101813.22;;;20.04;62.17
76311;BME280;65120;59.304;18.294;2023-08-12T10:54:18;101812.22;;;20.07;62.50
76311;BME280;65120;59.304;18.294;2023-08-12T10:57:08;101820.06;;;20.10;62.53
76311;BME280;65120;59.304;18.294;2023-08-12T10:59:51;101813.81;;;20.11;62.49
76311;BME280;65120;59.304;18.294;2023-08-12T11:02:21;101803.25;;;20.09;62.87
76311;BME280;65120;59.304;18.294;2023-08-12T11:04:51;101813.50;;;20.18;62.47
76311;BME280;65120;59.304;18.294;2023-08-12T11:07:20;101801.16;;;20.17;62.32
76311;BME280;65120;59.304;18.294;2023-08-12T11:09:51;101811.31;;;20.28;62.41
76311;BME280;65120;59.304;18.294;2023-08-12T11:12:28;101815.50;;;20.34;62.55
76311;BME280;65120;59.304;18.294;2023-08-12T11:14:58;101808.25;;;20.37;62.21
76311;BME280;65120;59.304;18.294;2023-08-12T11:17:32;101811.72;;;20.39;61.69
76311;BME280;65120;59.304;18.294;2023-08-12T11:20:00;101809.00;;;20.41;61.57
76311;BME280;65120;59.304;18.294;2023-08-12T11:22:29;101815.97;;;20.43;61.55
76311;BME280;65120;59.304;18.294;2023-08-12T11:24:56;101816.75;;;20.45;61.20
76311;BME280;65120;59.304;18.294;2023-08-12T11:27:23;101813.19;;;20.47;60.92
76311;BME280;65120;59.304;18.294;2023-08-12T11:29:50;101817.38;;;20.52;61.45
76311;BME280;65120;59.304;18.294;2023-08-12T11:32:18;101809.34;;;20.54;61.39
76311;BME280;65120;59.304;18.294;2023-08-12T11:34:46;101803.00;;;20.58;60.83
76311;BME280;65120;59.304;18.294;2023-08-12T11:37:14;101814.38;;;20.60;60.83
76311;BME280;65120;59.304;18.294;2023-08-12T11:39:41;101808.09;;;20.62;60.71
76311;BME280;65120;59.304;18.294;2023-08-12T11:42:08;101807.19;;;20.63;60.32
76311;BME280;65120;59.304;18.294;2023-08-12T11:44:34;101811.47;;;20.66;60.23
76311;BME280;65120;59.304;18.294;2023-08-12T11:47:01;101811.34;;;20.69;60.15
76311;BME280;65120;59.304;18.294;2023-08-12T11:49:28;101807.88;;;20.67;60.03
76311;BME280;65120;59.304;18.294;2023-08-12T11:51:57;101797.28;;;20.67;59.67
76311;BME280;65120;59.304;18.294;2023-08-12T11:54:24;101801.50;;;20.71;59.45
76311;BME280;65120;59.304;18.294;2023-08-12T11:56:51;101803.31;;;20.71;59.56
76311;BME280;65120;59.304;18.294;2023-08-12T11:59:21;101795.28;;;20.72;59.53
76311;BME280;65120;59.304;18.294;2023-08-12T12:01:49;101789.03;;;20.73;60.06
76311;BME280;65120;59.304;18.294;2023-08-12T12:04:16;101789.88;;;20.74;59.98
76311;BME280;65120;59.304;18.294;2023-08-12T12:06:46;101759.09;;;20.70;59.89
76311;BME280;65120;59.304;18.294;2023-08-12T12:09:15;101760.09;;;20.67;60.01
76311;BME280;65120;59.304;18.294;2023-08-12T12:11:44;101772.81;;;20.79;60.18
76311;BME280;65120;59.304;18.294;2023-08-12T12:14:11;101759.69;;;20.76;60.19
76311;BME280;65120;59.304;18.294;2023-08-12T12:16:39;101749.72;;;20.81;60.02
76311;BME280;65120;59.304;18.294;2023-08-12T12:19:09;101764.66;;;20.84;59.95
76311;BME280;65120;59.304;18.294;2023-08-12T12:21:39;101781.44;;;20.84;59.88
76311;BME280;65120;59.304;18.294;2023-08-12T12:24:07;101791.91;;;20.87;59.92
76311;BME280;65120;59.304;18.294;2023-08-12T12:26:36;101772.97;;;20.76;60.05
76311;BME280;65120;59.304;18.294;2023-08-12T12:29:03;101799.69;;;20.92;59.75
76311;BME280;65120;59.304;18.294;2023-08-12T12:31:32;101786.59;;;20.87;59.73
76311;BME280;65120;59.304;18.294;2023-08-12T12:34:00;101796.81;;;20.97;59.96
76311;BME280;65120;59.304;18.294;2023-08-12T12:36:27;101787.94;;;20.98;59.56
76311;BME280;65120;59.304;18.294;2023-08-12T12:38:54;101783.38;;;21.00;59.58
76311;BME280;65120;59.304;18.294;2023-08-12T12:41:20;101778.88;;;21.02;59.72
76311;BME280;65120;59.304;18.294;2023-08-12T12:43:49;101784.03;;;21.05;59.94